createdAt,value
2023-02-15T00:01:48.818Z,102834.00
2023-02-15T00:04:18.167Z,102840.00
2023-02-15T00:06:44.975Z,102835.00
2023-02-15T00:09:12.341Z,102831.00
2023-02-15T00:11:51.149Z,102827.00
2023-02-15T00:14:22.792Z,102830.00
2023-02-15T00:16:52.087Z,102819.00
2023-02-15T00:19:21.175Z,102819.00
2023-02-15T00:21:49.240Z,102821.00
2023-02-15T00:24:17.844Z,102811.00
2023-02-15T00:26:45.724Z,102809.00
2023-02-15T00:29:14.030Z,102798.00
2023-02-15T00:31:40.728Z,102808.00
2023-02-15T00:34:12.811Z,102804.00
2023-02-15T00:36:40.429Z,102798.00
2023-02-15T00:39:07.600Z,102802.00
2023-02-15T00:41:34.433Z,102796.00
2023-02-15T00:44:01.341Z,102799.00
2023-02-15T00:46:28.304Z,102782.00
2023-02-15T00:48:54.935Z,102791.00
2023-02-15T00:51:21.573Z,102778.00
2023-02-15T00:53:48.691Z,102784.00
2023-02-15T00:56:15.647Z,102773.00
2023-02-15T00:58:42.607Z,102767.00
2023-02-15T01:01:15.894Z,102775.00
2023-02-15T01:03:42.713Z,102774.00
2023-02-15T01:06:10.459Z,102763.00
2023-02-15T01:08:37.696Z,102766.00
2023-02-15T01:11:10.500Z,102766.00
2023-02-15T01:13:37.224Z,102763.00
2023-02-15T01:16:05.352Z,102756.00
2023-02-15T01:18:32.843Z,102753.00
2023-02-15T01:20:59.651Z,102756.00
2023-02-15T01:23:26.492Z,102754.00
2023-02-15T01:25:53.280Z,102751.00
2023-02-15T01:28:19.891Z,102753.00
2023-02-15T01:30:46.635Z,102744.00
2023-02-15T01:33:18.809Z,102745.00
2023-02-15T01:35:46.835Z,102741.00
2023-02-15T01:38:15.085Z,102750.00
2023-02-15T01:40:41.987Z,102742.00
2023-02-15T01:43:12.261Z,102737.00
2023-02-15T01:45:40.104Z,102733.00
2023-02-15T01:48:09.453Z,102733.00
2023-02-15T01:50:42.082Z,102725.00
2023-02-15T01:53:15.197Z,102726.00
2023-02-15T01:55:46.608Z,102733.00
2023-02-15T01:58:15.009Z,102731.00
2023-02-15T02:00:42.106Z,102724.00
2023-02-15T02:03:09.144Z,102731.00
2023-02-15T02:05:36.040Z,102733.00
2023-02-15T02:08:03.808Z,102732.00
2023-02-15T02:10:30.556Z,102737.00
2023-02-15T02:13:00.801Z,102729.00
2023-02-15T02:15:36.479Z,102723.00
2023-02-15T02:18:11.841Z,102738.00
2023-02-15T02:21:13.900Z,102730.00
2023-02-15T02:23:52.445Z,102723.00
2023-02-15T02:26:47.912Z,102714.00
2023-02-15T02:29:17.568Z,102714.00
2023-02-15T02:32:13.037Z,102713.00
2023-02-15T02:35:07.602Z,102713.00
2023-02-15T02:38:04.482Z,102707.00
2023-02-15T02:40:45.510Z,102698.00
2023-02-15T02:43:33.246Z,102700.00
2023-02-15T02:46:07.910Z,102693.00
2023-02-15T02:48:35.732Z,102690.00
2023-02-15T02:51:02.456Z,102688.00
2023-02-15T02:53:31.258Z,102683.00
2023-02-15T02:56:04.540Z,102678.00
2023-02-15T02:58:46.073Z,102667.00
2023-02-15T03:01:21.603Z,102661.00
2023-02-15T03:03:50.166Z,102666.00
2023-02-15T03:06:29.181Z,102663.00
2023-02-15T03:09:03.098Z,102653.00
2023-02-15T03:11:31.017Z,102648.00
2023-02-15T03:13:58.448Z,102650.00
2023-02-15T03:16:28.720Z,102653.00
2023-02-15T03:19:11.258Z,102649.00
2023-02-15T03:21:50.630Z,102645.00
2023-02-15T03:24:22.790Z,102632.00
2023-02-15T03:26:52.818Z,102639.00
2023-02-15T03:29:23.298Z,102627.00
2023-02-15T03:31:57.216Z,102625.00
2023-02-15T03:34:24.375Z,102622.00
2023-02-15T03:37:01.252Z,102627.00
2023-02-15T03:39:43.096Z,102632.00
2023-02-15T03:42:40.812Z,102630.00
2023-02-15T03:45:11.861Z,102627.00
2023-02-15T03:47:42.928Z,102642.00
2023-02-15T03:50:36.614Z,102630.00
2023-02-15T03:53:07.306Z,102630.00
2023-02-15T03:55:35.624Z,102623.00
2023-02-15T03:58:20.973Z,102626.00
2023-02-15T04:01:14.093Z,102628.00
2023-02-15T04:03:45.769Z,102638.00
2023-02-15T04:06:12.372Z,102629.00
2023-02-15T04:08:57.832Z,102622.00
2023-02-15T04:11:24.498Z,102623.00
2023-02-15T04:13:57.388Z,102618.00
2023-02-15T04:16:25.193Z,102622.00
2023-02-15T04:19:11.007Z,102626.00
2023-02-15T04:21:56.245Z,102622.00
2023-02-15T04:24:41.559Z,102627.00
2023-02-15T04:27:08.293Z,102627.00
2023-02-15T04:29:35.022Z,102627.00
2023-02-15T04:32:03.168Z,102631.00
2023-02-15T04:34:30.003Z,102624.00
2023-02-15T04:36:56.640Z,102613.00
2023-02-15T04:39:23.326Z,102622.00
2023-02-15T04:41:49.945Z,102614.00
2023-02-15T04:44:16.877Z,102617.00
2023-02-15T04:46:43.593Z,102616.00
2023-02-15T04:49:10.589Z,102614.00
2023-02-15T04:51:37.623Z,102615.00
2023-02-15T04:54:04.589Z,102604.00
2023-02-15T04:56:32.248Z,102597.00
2023-02-15T04:58:58.982Z,102600.00
2023-02-15T05:01:25.712Z,102589.00
2023-02-15T05:03:52.413Z,102582.00
2023-02-15T05:06:19.126Z,102582.00
2023-02-15T05:08:45.773Z,102583.00
2023-02-15T05:11:12.498Z,102582.00
2023-02-15T05:13:39.150Z,102586.00
2023-02-15T05:16:05.986Z,102586.00
2023-02-15T05:18:32.864Z,102577.00
2023-02-15T05:20:59.502Z,102578.00
2023-02-15T05:23:26.193Z,102583.00
2023-02-15T05:26:11.831Z,102576.00
2023-02-15T05:28:39.190Z,102579.00
2023-02-15T05:31:16.493Z,102577.00
2023-02-15T05:33:44.338Z,102568.00
2023-02-15T05:36:11.758Z,102566.00
2023-02-15T05:38:39.157Z,102559.00
2023-02-15T05:41:06.926Z,102560.00
2023-02-15T05:43:34.188Z,102554.00
2023-02-15T05:46:01.713Z,102546.00
2023-02-15T05:48:28.764Z,102556.00
2023-02-15T05:51:10.076Z,102544.00
2023-02-15T05:53:39.122Z,102547.00
2023-02-15T05:56:07.703Z,102549.00
2023-02-15T05:58:37.818Z,102550.00
2023-02-15T06:01:19.198Z,102544.00
2023-02-15T06:03:46.958Z,102534.00
2023-02-15T06:06:14.105Z,102531.00
2023-02-15T06:08:41.703Z,102527.00
2023-02-15T06:11:08.619Z,102534.00
2023-02-15T06:13:38.567Z,102531.00
2023-02-15T06:16:06.929Z,102533.00
2023-02-15T06:18:33.823Z,102534.00
2023-02-15T06:21:01.061Z,102534.00
2023-02-15T06:23:27.727Z,102536.00
2023-02-15T06:25:54.430Z,102540.00
2023-02-15T06:28:21.315Z,102533.00
2023-02-15T06:30:48.121Z,102543.00
2023-02-15T06:33:14.867Z,102535.00
2023-02-15T06:35:41.651Z,102537.00
2023-02-15T06:38:08.307Z,102536.00
2023-02-15T06:40:34.915Z,102536.00
2023-02-15T06:43:01.627Z,102542.00
2023-02-15T06:45:28.402Z,102550.00
2023-02-15T06:47:55.036Z,102557.00
2023-02-15T06:50:21.675Z,102556.00
2023-02-15T06:52:48.419Z,102563.00
2023-02-15T06:55:15.116Z,102562.00
2023-02-15T06:57:41.770Z,102574.00
2023-02-15T07:00:09.293Z,102570.00
2023-02-15T07:02:35.996Z,102568.00
2023-02-15T07:05:02.971Z,102556.00
2023-02-15T07:07:29.665Z,102562.00
2023-02-15T07:09:56.286Z,102550.00
2023-02-15T07:12:41.761Z,102553.00
2023-02-15T07:15:16.691Z,102544.00
2023-02-15T07:17:43.956Z,102542.00
2023-02-15T07:20:22.563Z,102545.00
2023-02-15T07:22:50.251Z,102548.00
2023-02-15T07:25:17.365Z,102549.00
2023-02-15T07:27:45.797Z,102544.00
2023-02-15T07:30:16.548Z,102567.00
2023-02-15T07:33:04.820Z,102560.00
2023-02-15T07:35:32.428Z,102574.00
2023-02-15T07:37:59.064Z,102566.00
2023-02-15T07:40:26.162Z,102551.00
2023-02-15T07:42:55.634Z,102561.00
2023-02-15T07:45:22.781Z,102562.00
2023-02-15T07:47:49.480Z,102562.00
2023-02-15T07:50:16.216Z,102556.00
2023-02-15T07:52:42.865Z,102563.00
2023-02-15T07:55:09.964Z,102560.00
2023-02-15T07:57:36.699Z,102559.00
2023-02-15T08:00:04.486Z,102554.00
2023-02-15T08:02:31.419Z,102563.00
2023-02-15T08:04:58.186Z,102552.00
2023-02-15T08:07:24.843Z,102551.00
2023-02-15T08:09:51.562Z,102559.00
2023-02-15T08:12:18.192Z,102554.00
2023-02-15T08:14:44.866Z,102556.00
2023-02-15T08:17:11.523Z,102558.00
2023-02-15T08:19:38.366Z,102562.00
2023-02-15T08:22:08.149Z,102565.00
2023-02-15T08:24:38.505Z,102571.00
2023-02-15T08:27:06.576Z,102571.00
2023-02-15T08:29:34.087Z,102560.00
2023-02-15T08:32:06.634Z,102558.00
2023-02-15T08:34:34.634Z,102551.00
2023-02-15T08:37:01.818Z,102559.00
2023-02-15T08:39:28.485Z,102555.00
2023-02-15T08:41:55.513Z,102555.00
2023-02-15T08:44:22.277Z,102549.00
2023-02-15T08:46:50.644Z,102554.00
2023-02-15T08:49:20.344Z,102555.00
2023-02-15T08:51:47.919Z,102549.00
2023-02-15T08:54:17.479Z,102549.00
2023-02-15T08:56:46.454Z,102551.00
2023-02-15T08:59:17.368Z,102555.00
2023-02-15T09:01:45.472Z,102554.00
2023-02-15T09:04:14.017Z,102548.00
2023-02-15T09:06:42.731Z,102550.00
2023-02-15T09:09:09.837Z,102538.00
2023-02-15T09:11:38.918Z,102550.00
2023-02-15T09:14:17.874Z,102552.00
2023-02-15T09:16:50.438Z,102545.00
2023-02-15T09:19:19.121Z,102540.00
2023-02-15T09:21:46.245Z,102542.00
2023-02-15T09:24:15.114Z,102554.00
2023-02-15T09:26:44.059Z,102545.00
2023-02-15T09:29:12.432Z,102537.00
2023-02-15T09:31:47.307Z,102537.00
2023-02-15T09:34:17.052Z,102538.00
2023-02-15T09:36:43.920Z,102543.00
2023-02-15T09:39:10.695Z,102555.00
2023-02-15T09:41:56.038Z,102548.00
2023-02-15T09:44:25.549Z,102542.00
2023-02-15T09:47:14.143Z,102534.00
2023-02-15T09:50:18.494Z,102543.00
2023-02-15T09:52:51.304Z,102545.00
2023-02-15T09:55:20.495Z,102533.00
2023-02-15T09:58:11.497Z,102536.00
2023-02-15T10:00:56.885Z,102535.00
2023-02-15T10:03:29.134Z,102532.00
2023-02-15T10:06:02.438Z,102535.00
2023-02-15T10:08:29.023Z,102537.00
2023-02-15T10:10:55.596Z,102533.00
2023-02-15T10:13:38.132Z,102527.00
2023-02-15T10:16:27.795Z,102524.00
2023-02-15T10:19:08.724Z,102529.00
2023-02-15T10:21:51.545Z,102536.00
2023-02-15T10:24:40.564Z,102530.00
2023-02-15T10:27:18.915Z,102530.00
2023-02-15T10:30:14.297Z,102530.00
2023-02-15T10:33:02.319Z,102527.00
2023-02-15T10:35:55.847Z,102524.00
2023-02-15T10:38:43.713Z,102535.00
2023-02-15T10:41:26.562Z,102539.00
2023-02-15T10:44:12.572Z,102539.00
2023-02-15T10:46:52.401Z,102544.00
2023-02-15T10:49:31.283Z,102537.00
2023-02-15T10:52:31.096Z,102540.00
2023-02-15T10:55:11.245Z,102548.00
2023-02-15T10:57:56.296Z,102540.00
2023-02-15T11:00:22.753Z,102544.00
2023-02-15T11:03:01.454Z,102542.00
2023-02-15T11:05:50.227Z,102533.00
2023-02-15T11:08:17.820Z,102528.00
2023-02-15T11:10:53.209Z,102526.00
2023-02-15T11:13:22.011Z,102526.00
2023-02-15T11:15:55.230Z,102532.00
2023-02-15T11:18:40.232Z,102526.00
2023-02-15T11:21:18.711Z,102538.00
2023-02-15T11:23:46.256Z,102537.00
2023-02-15T11:26:18.385Z,102537.00
2023-02-15T11:28:52.206Z,102541.00
2023-02-15T11:31:22.804Z,102538.00
2023-02-15T11:33:54.830Z,102535.00
2023-02-15T11:36:26.711Z,102534.00
2023-02-15T11:39:03.604Z,102534.00
2023-02-15T11:41:34.915Z,102527.00
2023-02-15T11:44:07.244Z,102521.00
2023-02-15T11:46:33.949Z,102526.00
2023-02-15T11:49:00.709Z,102520.00
2023-02-15T11:51:29.842Z,102521.00
2023-02-15T11:53:57.453Z,102523.00
2023-02-15T11:56:26.136Z,102504.00
2023-02-15T11:59:01.020Z,102502.00
2023-02-15T12:01:37.846Z,102505.00
2023-02-15T12:04:21.654Z,102508.00
2023-02-15T12:07:03.978Z,102506.00
2023-02-15T12:09:38.330Z,102505.00
2023-02-15T12:12:27.689Z,102503.00
2023-02-15T12:14:56.926Z,102498.00
2023-02-15T12:17:29.861Z,102505.00
2023-02-15T12:20:00.366Z,102499.00
2023-02-15T12:22:30.640Z,102498.00
2023-02-15T12:25:00.640Z,102504.00
2023-02-15T12:27:35.832Z,102501.00
2023-02-15T12:30:17.751Z,102498.00
2023-02-15T12:32:52.542Z,102489.00
2023-02-15T12:35:38.853Z,102490.00
2023-02-15T12:38:11.303Z,102486.00
2023-02-15T12:40:39.458Z,102486.00
2023-02-15T12:43:09.879Z,102490.00
2023-02-15T12:45:38.570Z,102489.00
2023-02-15T12:48:15.182Z,102486.00
2023-02-15T12:50:43.506Z,102487.00
2023-02-15T12:53:34.881Z,102498.00
2023-02-15T12:56:04.005Z,102487.00
2023-02-15T12:58:35.586Z,102484.00
2023-02-15T13:01:25.647Z,102482.00
2023-02-15T13:04:06.862Z,102478.00
2023-02-15T13:06:36.322Z,102474.00
2023-02-15T13:09:18.199Z,102459.00
2023-02-15T13:11:46.006Z,102459.00
2023-02-15T13:14:22.882Z,102462.00
2023-02-15T13:16:53.127Z,102464.00
2023-02-15T13:19:51.111Z,102465.00
2023-02-15T13:22:26.841Z,102460.00
2023-02-15T13:25:00.335Z,102448.00
2023-02-15T13:27:39.883Z,102451.00
2023-02-15T13:30:19.899Z,102451.00
2023-02-15T13:32:49.635Z,102446.00
2023-02-15T13:35:17.965Z,102446.00
2023-02-15T13:38:09.572Z,102440.00
2023-02-15T13:40:36.316Z,102430.00
2023-02-15T13:43:40.716Z,102430.00
2023-02-15T13:46:19.490Z,102430.00
2023-02-15T13:48:51.031Z,102432.00
2023-02-15T13:51:29.308Z,102427.00
2023-02-15T13:54:18.788Z,102423.00
2023-02-15T13:57:22.394Z,102423.00
2023-02-15T14:00:10.647Z,102405.00
2023-02-15T14:02:52.418Z,102410.00
2023-02-15T14:05:31.906Z,102399.00
2023-02-15T14:08:36.942Z,102409.00
2023-02-15T14:11:18.256Z,102409.00
2023-02-15T14:14:26.781Z,102406.00
2023-02-15T14:17:18.465Z,102412.00
2023-02-15T14:19:55.334Z,102409.00
2023-02-15T14:22:32.717Z,102411.00
2023-02-15T14:25:41.501Z,102409.00
2023-02-15T14:28:24.543Z,102390.00
2023-02-15T14:30:52.267Z,102400.00
2023-02-15T14:33:36.046Z,102407.00
2023-02-15T14:36:07.307Z,102406.00
2023-02-15T14:38:58.082Z,102397.00
2023-02-15T14:41:36.554Z,102400.00
2023-02-15T14:44:14.162Z,102403.00
2023-02-15T14:47:06.988Z,102397.00
2023-02-15T14:49:38.121Z,102377.00
2023-02-15T14:52:09.630Z,102370.00
2023-02-15T14:54:36.211Z,102371.00
2023-02-15T14:57:02.753Z,102387.00
2023-02-15T14:59:41.429Z,102373.00
2023-02-15T15:02:07.995Z,102370.00
2023-02-15T15:04:54.331Z,102373.00
2023-02-15T15:07:45.989Z,102359.00
2023-02-15T15:10:18.740Z,102369.00
2023-02-15T15:12:49.993Z,102364.00
2023-02-15T15:15:28.908Z,102353.00
2023-02-15T15:17:57.232Z,102359.00
2023-02-15T15:20:27.158Z,102351.00
2023-02-15T15:23:15.599Z,102350.00
2023-02-15T15:25:56.062Z,102347.00
2023-02-15T15:28:34.929Z,102338.00
2023-02-15T15:31:29.114Z,102350.00
2023-02-15T15:34:24.678Z,102351.00
2023-02-15T15:37:24.533Z,102358.00
2023-02-15T15:39:56.944Z,102356.00
2023-02-15T15:43:03.507Z,102356.00
2023-02-15T15:46:23.728Z,102359.00
2023-02-15T15:48:50.451Z,102360.00
2023-02-15T15:51:32.276Z,102363.00
2023-02-15T15:53:59.029Z,102366.00
2023-02-15T15:56:30.947Z,102362.00
2023-02-15T15:59:02.191Z,102366.00
2023-02-15T16:01:31.335Z,102363.00
2023-02-15T16:04:00.165Z,102372.00
2023-02-15T16:06:32.589Z,102368.00
2023-02-15T16:09:16.585Z,102362.00
2023-02-15T16:11:44.143Z,102359.00
2023-02-15T16:14:17.121Z,102365.00
2023-02-15T16:16:51.559Z,102359.00
2023-02-15T16:19:23.118Z,102359.00
2023-02-15T16:21:50.516Z,102356.00
2023-02-15T16:24:38.238Z,102350.00
2023-02-15T16:27:33.841Z,102343.00
2023-02-15T16:30:20.078Z,102344.00
2023-02-15T16:32:46.835Z,102340.00
2023-02-15T16:35:19.814Z,102339.00
2023-02-15T16:37:47.082Z,102342.00
2023-02-15T16:40:40.282Z,102351.00
2023-02-15T16:43:13.197Z,102354.00
2023-02-15T16:45:39.958Z,102363.00
2023-02-15T16:48:12.863Z,102366.00
2023-02-15T16:50:40.025Z,102367.00
2023-02-15T16:53:14.858Z,102354.00
2023-02-15T16:55:43.459Z,102365.00
2023-02-15T16:58:16.581Z,102374.00
2023-02-15T17:00:43.665Z,102378.00
2023-02-15T17:03:12.962Z,102391.00
2023-02-15T17:05:55.127Z,102392.00
2023-02-15T17:08:35.200Z,102387.00
2023-02-15T17:11:16.009Z,102389.00
2023-02-15T17:14:07.797Z,102384.00
2023-02-15T17:16:53.580Z,102388.00
2023-02-15T17:19:29.564Z,102398.00
2023-02-15T17:21:59.337Z,102401.00
2023-02-15T17:24:25.980Z,102395.00
2023-02-15T17:27:01.491Z,102398.00
2023-02-15T17:29:39.746Z,102399.00
2023-02-15T17:32:19.026Z,102399.00
2023-02-15T17:35:00.147Z,102410.00
2023-02-15T17:37:38.506Z,102407.00
2023-02-15T17:40:35.156Z,102406.00
2023-02-15T17:43:02.984Z,102416.00
2023-02-15T17:45:41.043Z,102421.00
2023-02-15T17:48:16.630Z,102421.00
2023-02-15T17:50:43.441Z,102424.00
2023-02-15T17:53:10.672Z,102415.00
2023-02-15T17:55:40.242Z,102416.00
2023-02-15T17:58:10.662Z,102414.00
2023-02-15T18:01:00.078Z,102411.00
2023-02-15T18:03:57.117Z,102410.00
2023-02-15T18:06:42.569Z,102412.00
2023-02-15T18:09:32.548Z,102416.00
2023-02-15T18:11:59.377Z,102424.00
2023-02-15T18:14:26.347Z,102434.00
2023-02-15T18:16:54.912Z,102433.00
2023-02-15T18:19:24.431Z,102432.00
2023-02-15T18:21:53.016Z,102427.00
2023-02-15T18:24:22.036Z,102424.00
2023-02-15T18:26:49.136Z,102416.00
2023-02-15T18:29:16.195Z,102419.00
2023-02-15T18:31:45.826Z,102426.00
2023-02-15T18:34:40.192Z,102426.00
2023-02-15T18:37:13.587Z,102417.00
2023-02-15T18:39:45.647Z,102425.00
2023-02-15T18:42:36.781Z,102423.00
2023-02-15T18:45:18.957Z,102417.00
2023-02-15T18:47:46.686Z,102415.00
2023-02-15T18:50:15.725Z,102422.00
2023-02-15T18:52:45.082Z,102423.00
2023-02-15T18:55:21.987Z,102434.00
2023-02-15T18:57:50.921Z,102430.00
2023-02-15T19:00:28.392Z,102426.00
2023-02-15T19:02:56.249Z,102423.00
2023-02-15T19:05:24.024Z,102437.00
2023-02-15T19:07:51.419Z,102436.00
2023-02-15T19:10:24.920Z,102437.00
2023-02-15T19:12:53.056Z,102436.00
2023-02-15T19:15:30.700Z,102440.00
2023-02-15T19:17:57.356Z,102433.00
2023-02-15T19:20:27.820Z,102433.00
2023-02-15T19:22:58.292Z,102434.00
2023-02-15T19:25:30.668Z,102425.00
2023-02-15T19:27:58.156Z,102431.00
2023-02-15T19:30:28.697Z,102430.00
2023-02-15T19:32:56.758Z,102426.00
2023-02-15T19:35:26.639Z,102433.00
2023-02-15T19:37:57.758Z,102438.00
2023-02-15T19:40:43.734Z,102436.00
2023-02-15T19:43:16.910Z,102424.00
2023-02-15T19:45:43.665Z,102430.00
2023-02-15T19:48:13.978Z,102425.00
2023-02-15T19:50:43.696Z,102424.00
2023-02-15T19:53:22.314Z,102421.00
2023-02-15T19:55:49.174Z,102429.00
2023-02-15T19:58:19.191Z,102419.00
2023-02-15T20:00:53.713Z,102425.00
2023-02-15T20:03:20.653Z,102413.00
2023-02-15T20:05:47.304Z,102402.00
2023-02-15T20:08:20.314Z,102410.00
2023-02-15T20:10:47.474Z,102414.00
2023-02-15T20:13:18.864Z,102413.00
2023-02-15T20:15:46.308Z,102421.00
2023-02-15T20:18:13.067Z,102423.00
2023-02-15T20:20:46.266Z,102423.00
2023-02-15T20:23:30.676Z,102421.00
2023-02-15T20:25:59.098Z,102419.00
2023-02-15T20:28:29.254Z,102424.00
2023-02-15T20:30:56.232Z,102424.00
2023-02-15T20:33:23.741Z,102414.00
2023-02-15T20:35:51.270Z,102414.00
2023-02-15T20:38:21.163Z,102414.00
2023-02-15T20:41:06.925Z,102420.00
2023-02-15T20:43:34.178Z,102419.00
2023-02-15T20:46:01.316Z,102420.00
2023-02-15T20:48:28.219Z,102424.00
2023-02-15T20:50:55.574Z,102422.00
2023-02-15T20:53:22.673Z,102426.00
2023-02-15T20:55:49.286Z,102428.00
2023-02-15T20:58:24.809Z,102415.00
2023-02-15T21:00:52.160Z,102420.00
2023-02-15T21:03:22.375Z,102422.00
2023-02-15T21:05:49.780Z,102414.00
2023-02-15T21:08:19.453Z,102422.00
2023-02-15T21:10:48.451Z,102417.00
2023-02-15T21:13:34.377Z,102418.00
2023-02-15T21:16:02.166Z,102425.00
2023-02-15T21:18:31.413Z,102428.00
2023-02-15T21:21:00.782Z,102425.00
2023-02-15T21:23:32.092Z,102425.00
2023-02-15T21:25:58.997Z,102425.00
2023-02-15T21:28:27.644Z,102426.00
2023-02-15T21:30:57.791Z,102420.00
2023-02-15T21:33:25.727Z,102424.00
2023-02-15T21:35:54.760Z,102418.00
2023-02-15T21:38:30.900Z,102423.00
2023-02-15T21:41:17.539Z,102419.00
2023-02-15T21:44:02.615Z,102414.00
2023-02-15T21:46:47.793Z,102424.00
2023-02-15T21:49:14.462Z,102430.00
2023-02-15T21:51:59.578Z,102425.00
2023-02-15T21:54:26.652Z,102426.00
2023-02-15T21:56:54.106Z,102430.00
2023-02-15T21:59:20.690Z,102429.00
2023-02-15T22:01:49.539Z,102421.00
2023-02-15T22:04:24.823Z,102424.00
2023-02-15T22:06:51.536Z,102434.00
2023-02-15T22:09:23.659Z,102429.00
2023-02-15T22:11:51.850Z,102424.00
2023-02-15T22:14:27.385Z,102421.00
2023-02-15T22:16:54.020Z,102419.00
2023-02-15T22:19:20.651Z,102420.00
2023-02-15T22:21:47.303Z,102424.00
2023-02-15T22:24:13.930Z,102428.00
2023-02-15T22:26:40.564Z,102427.00
2023-02-15T22:29:07.303Z,102417.00
2023-02-15T22:31:34.099Z,102417.00
2023-02-15T22:34:00.849Z,102425.00
2023-02-15T22:36:31.116Z,102417.00
2023-02-15T22:38:58.419Z,102414.00
2023-02-15T22:41:29.169Z,102422.00
2023-02-15T22:43:56.811Z,102417.00
2023-02-15T22:46:24.984Z,102418.00
2023-02-15T22:48:52.260Z,102425.00
2023-02-15T22:51:24.200Z,102425.00
2023-02-15T22:53:54.230Z,102415.00
2023-02-15T22:56:43.838Z,102402.00
2023-02-15T22:59:36.263Z,102403.00
2023-02-15T23:02:03.456Z,102404.00
2023-02-15T23:04:32.460Z,102412.00
2023-02-15T23:07:00.996Z,102417.00
2023-02-15T23:09:27.652Z,102400.00
2023-02-15T23:11:54.723Z,102401.00
2023-02-15T23:14:31.350Z,102396.00
2023-02-15T23:16:58.080Z,102402.00
2023-02-15T23:19:24.764Z,102400.00
2023-02-15T23:21:53.355Z,102391.00
2023-02-15T23:24:22.136Z,102378.00
2023-02-15T23:26:50.606Z,102376.00
2023-02-15T23:29:20.635Z,102376.00
2023-02-15T23:31:50.825Z,102377.00
2023-02-15T23:34:26.144Z,102389.00
2023-02-15T23:36:52.966Z,102392.00
2023-02-15T23:39:44.422Z,102394.00
2023-02-15T23:42:18.113Z,102395.00
2023-02-15T23:44:46.360Z,102388.00
2023-02-15T23:48:01.040Z,102386.00
2023-02-15T23:50:29.785Z,102388.00
2023-02-15T23:52:57.261Z,102383.00
2023-02-15T23:55:28.592Z,102387.00
2023-02-15T23:57:55.245Z,102381.00
